sensor_id;sensor_type;location;lat;lon;timestamp;P1;durP1;ratioP1;P2;durP2;ratioP2
1300;SDS011;59099;48.806;9.160;2022-09-01T00:00:43;18.60;;;16.87;;
1300;SDS011;59099;48.806;9.160;2022-09-01T00:03:16;21.07;;;18.97;;
1300;SDS011;59099;48.806;9.160;2022-09-01T00:05:43;21.87;;;19.73;;
1300;SDS011;59099;48.806;9.160;2022-09-01T00:08:11;20.90;;;18.80;;
1300;SDS011;59099;48.806;9.160;2022-09-01T00:10:38;20.13;;;18.23;;
1300;SDS011;59099;48.806;9.160;2022-09-01T00:13:04;31.40;;;20.90;;
1300;SDS011;59099;48.806;9.160;2022-09-01T00:15:34;22.63;;;20.53;;
1300;SDS011;59099;48.806;9.160;2022-09-01T00:18:00;22.63;;;20.33;;
1300;SDS011;59099;48.806;9.160;2022-09-01T00:20:27;19.70;;;17.70;;
1300;SDS011;59099;48.806;9.160;2022-09-01T00:22:53;21.10;;;19.00;;
1300;SDS011;59099;48.806;9.160;2022-09-01T00:25:20;20.70;;;18.63;;
1300;SDS011;59099;48.806;9.160;2022-09-01T00:27:47;20.80;;;18.83;;
1300;SDS011;59099;48.806;9.160;2022-09-01T00:30:13;19.97;;;18.07;;
1300;SDS011;59099;48.806;9.160;2022-09-01T00:32:39;22.40;;;20.40;;
1300;SDS011;59099;48.806;9.160;2022-09-01T00:35:10;19.60;;;17.80;;
1300;SDS011;59099;48.806;9.160;2022-09-01T00:37:40;20.77;;;18.67;;
1300;SDS011;59099;48.806;9.160;2022-09-01T00:40:07;22.10;;;19.90;;
1300;SDS011;59099;48.806;9.160;2022-09-01T00:42:34;20.20;;;18.10;;
1300;SDS011;59099;48.806;9.160;2022-09-01T00:45:00;20.13;;;18.23;;
1300;SDS011;59099;48.806;9.160;2022-09-01T00:47:26;19.90;;;17.90;;
1300;SDS011;59099;48.806;9.160;2022-09-01T00:49:52;19.67;;;17.63;;
1300;SDS011;59099;48.806;9.160;2022-09-01T00:52:20;18.30;;;16.67;;
1300;SDS011;59099;48.806;9.160;2022-09-01T00:54:55;19.67;;;17.73;;
1300;SDS011;59099;48.806;9.160;2022-09-01T00:57:24;19.60;;;17.80;;
1300;SDS011;59099;48.806;9.160;2022-09-01T00:59:53;19.63;;;17.80;;
1300;SDS011;59099;48.806;9.160;2022-09-01T01:02:24;18.87;;;16.70;;
1300;SDS011;59099;48.806;9.160;2022-09-01T01:04:51;23.30;;;17.50;;
1300;SDS011;59099;48.806;9.160;2022-09-01T01:07:18;20.43;;;18.50;;
1300;SDS011;59099;48.806;9.160;2022-09-01T01:09:46;18.87;;;17.10;;
1300;SDS011;59099;48.806;9.160;2022-09-01T01:12:13;21.90;;;19.70;;
1300;SDS011;59099;48.806;9.160;2022-09-01T01:14:43;20.23;;;18.23;;
1300;SDS011;59099;48.806;9.160;2022-09-01T01:17:10;21.60;;;19.40;;
1300;SDS011;59099;48.806;9.160;2022-09-01T01:22:29;22.23;;;19.60;;
1300;SDS011;59099;48.806;9.160;2022-09-01T01:25:24;22.53;;;20.33;;
1300;SDS011;59099;48.806;9.160;2022-09-01T01:27:50;21.67;;;19.47;;
1300;SDS011;59099;48.806;9.160;2022-09-01T01:30:16;22.10;;;19.80;;
1300;SDS011;59099;48.806;9.160;2022-09-01T01:32:45;22.30;;;20.20;;
1300;SDS011;59099;48.806;9.160;2022-09-01T01:35:13;21.90;;;19.57;;
1300;SDS011;59099;48.806;9.160;2022-09-01T01:37:42;22.60;;;20.30;;
1300;SDS011;59099;48.806;9.160;2022-09-01T01:40:11;22.63;;;20.60;;
1300;SDS011;59099;48.806;9.160;2022-09-01T01:42:48;21.67;;;19.53;;
1300;SDS011;59099;48.806;9.160;2022-09-01T01:45:17;22.73;;;20.50;;
1300;SDS011;59099;48.806;9.160;2022-09-01T01:47:46;24.43;;;22.13;;
1300;SDS011;59099;48.806;9.160;2022-09-01T01:50:26;24.33;;;21.70;;
1300;SDS011;59099;48.806;9.160;2022-09-01T01:53:00;22.20;;;20.10;;
1300;SDS011;59099;48.806;9.160;2022-09-01T01:55:28;24.30;;;20.30;;
1300;SDS011;59099;48.806;9.160;2022-09-01T01:57:57;24.37;;;21.73;;
1300;SDS011;59099;48.806;9.160;2022-09-01T02:02:54;23.90;;;21.70;;
1300;SDS011;59099;48.806;9.160;2022-09-01T02:07:53;20.03;;;18.13;;
1300;SDS011;59099;48.806;9.160;2022-09-01T02:10:25;24.27;;;21.40;;
1300;SDS011;59099;48.806;9.160;2022-09-01T02:12:55;23.43;;;21.00;;
1300;SDS011;59099;48.806;9.160;2022-09-01T02:15:33;22.60;;;20.37;;
1300;SDS011;59099;48.806;9.160;2022-09-01T02:18:13;22.03;;;19.90;;
1300;SDS011;59099;48.806;9.160;2022-09-01T02:20:45;21.93;;;19.83;;
1300;SDS011;59099;48.806;9.160;2022-09-01T02:23:13;23.20;;;20.90;;
1300;SDS011;59099;48.806;9.160;2022-09-01T02:25:42;22.30;;;20.10;;
1300;SDS011;59099;48.806;9.160;2022-09-01T02:28:11;20.80;;;18.70;;
1300;SDS011;59099;48.806;9.160;2022-09-01T02:30:41;23.33;;;21.03;;
1300;SDS011;59099;48.806;9.160;2022-09-01T02:33:13;21.50;;;18.70;;
1300;SDS011;59099;48.806;9.160;2022-09-01T02:35:45;29.27;;;19.60;;
1300;SDS011;59099;48.806;9.160;2022-09-01T02:38:12;20.53;;;18.53;;
1300;SDS011;59099;48.806;9.160;2022-09-01T02:40:39;20.97;;;18.93;;
1300;SDS011;59099;48.806;9.160;2022-09-01T02:43:08;22.30;;;20.10;;
1300;SDS011;59099;48.806;9.160;2022-09-01T02:45:36;23.07;;;20.70;;
1300;SDS011;59099;48.806;9.160;2022-09-01T02:48:04;21.60;;;18.43;;
1300;SDS011;59099;48.806;9.160;2022-09-01T02:50:34;23.07;;;20.67;;
1300;SDS011;59099;48.806;9.160;2022-09-01T02:53:00;21.37;;;19.17;;
1300;SDS011;59099;48.806;9.160;2022-09-01T02:55:26;21.10;;;19.10;;
1300;SDS011;59099;48.806;9.160;2022-09-01T02:57:52;20.73;;;18.83;;
1300;SDS011;59099;48.806;9.160;2022-09-01T03:00:23;22.67;;;20.33;;
1300;SDS011;59099;48.806;9.160;2022-09-01T03:02:58;22.90;;;20.53;;
1300;SDS011;59099;48.806;9.160;2022-09-01T03:05:28;20.27;;;18.50;;
1300;SDS011;59099;48.806;9.160;2022-09-01T03:07:56;20.67;;;18.63;;
1300;SDS011;59099;48.806;9.160;2022-09-01T03:10:28;21.63;;;19.73;;
1300;SDS011;59099;48.806;9.160;2022-09-01T03:13:04;20.10;;;18.27;;
1300;SDS011;59099;48.806;9.160;2022-09-01T03:15:33;21.30;;;19.30;;
1300;SDS011;59099;48.806;9.160;2022-09-01T03:18:01;20.40;;;18.50;;
1300;SDS011;59099;48.806;9.160;2022-09-01T03:20:29;23.70;;;19.43;;
1300;SDS011;59099;48.806;9.160;2022-09-01T03:22:59;22.03;;;19.80;;
1300;SDS011;59099;48.806;9.160;2022-09-01T03:25:25;20.13;;;18.20;;
1300;SDS011;59099;48.806;9.160;2022-09-01T03:27:54;21.03;;;18.70;;
1300;SDS011;59099;48.806;9.160;2022-09-01T03:30:23;21.43;;;19.27;;
1300;SDS011;59099;48.806;9.160;2022-09-01T03:32:51;21.20;;;19.30;;
1300;SDS011;59099;48.806;9.160;2022-09-01T03:35:17;20.13;;;18.23;;
1300;SDS011;59099;48.806;9.160;2022-09-01T03:37:43;21.33;;;19.13;;
1300;SDS011;59099;48.806;9.160;2022-09-01T03:40:10;21.63;;;19.60;;
1300;SDS011;59099;48.806;9.160;2022-09-01T03:42:37;22.97;;;20.57;;
1300;SDS011;59099;48.806;9.160;2022-09-01T03:45:04;20.57;;;18.47;;
1300;SDS011;59099;48.806;9.160;2022-09-01T03:47:35;20.63;;;18.63;;
1300;SDS011;59099;48.806;9.160;2022-09-01T03:50:06;22.23;;;20.00;;
1300;SDS011;59099;48.806;9.160;2022-09-01T03:52:48;18.60;;;16.70;;
1300;SDS011;59099;48.806;9.160;2022-09-01T03:55:19;20.30;;;18.33;;
1300;SDS011;59099;48.806;9.160;2022-09-01T03:57:49;21.27;;;19.10;;
1300;SDS011;59099;48.806;9.160;2022-09-01T04:00:17;20.47;;;18.53;;
1300;SDS011;59099;48.806;9.160;2022-09-01T04:02:51;29.93;;;19.27;;
1300;SDS011;59099;48.806;9.160;2022-09-01T04:05:23;20.70;;;18.53;;
1300;SDS011;59099;48.806;9.160;2022-09-01T04:07:57;20.90;;;18.80;;
1300;SDS011;59099;48.806;9.160;2022-09-01T04:10:32;19.27;;;17.43;;
1300;SDS011;59099;48.806;9.160;2022-09-01T04:13:00;20.27;;;18.37;;
1300;SDS011;59099;48.806;9.160;2022-09-01T04:15:28;20.00;;;18.00;;
1300;SDS011;59099;48.806;9.160;2022-09-01T04:18:09;22.90;;;20.57;;
1300;SDS011;59099;48.806;9.160;2022-09-01T04:20:57;24.27;;;20.27;;
1300;SDS011;59099;48.806;9.160;2022-09-01T04:23:30;21.07;;;18.93;;
1300;SDS011;59099;48.806;9.160;2022-09-01T04:26:10;24.07;;;21.47;;
1300;SDS011;59099;48.806;9.160;2022-09-01T04:28:44;22.33;;;19.90;;
1300;SDS011;59099;48.806;9.160;2022-09-01T04:31:13;20.70;;;18.60;;
1300;SDS011;59099;48.806;9.160;2022-09-01T04:33:43;23.57;;;21.27;;
1300;SDS011;59099;48.806;9.160;2022-09-01T04:38:49;22.20;;;19.97;;
1300;SDS011;59099;48.806;9.160;2022-09-01T04:41:21;22.97;;;20.47;;
1300;SDS011;59099;48.806;9.160;2022-09-01T04:43:51;21.53;;;19.43;;
1300;SDS011;59099;48.806;9.160;2022-09-01T04:46:22;22.50;;;18.73;;
1300;SDS011;59099;48.806;9.160;2022-09-01T04:48:53;23.43;;;21.03;;
1300;SDS011;59099;48.806;9.160;2022-09-01T04:51:20;21.67;;;19.33;;
1300;SDS011;59099;48.806;9.160;2022-09-01T04:53:50;22.73;;;20.43;;
1300;SDS011;59099;48.806;9.160;2022-09-01T04:56:17;20.00;;;18.03;;
1300;SDS011;59099;48.806;9.160;2022-09-01T04:59:00;22.47;;;20.10;;
1300;SDS011;59099;48.806;9.160;2022-09-01T05:01:28;22.10;;;19.70;;
1300;SDS011;59099;48.806;9.160;2022-09-01T05:03:54;24.13;;;20.97;;
1300;SDS011;59099;48.806;9.160;2022-09-01T05:06:38;21.80;;;19.57;;
1300;SDS011;59099;48.806;9.160;2022-09-01T05:09:07;22.23;;;19.97;;
1300;SDS011;59099;48.806;9.160;2022-09-01T05:12:00;23.00;;;19.60;;
1300;SDS011;59099;48.806;9.160;2022-09-01T05:14:40;23.93;;;20.83;;
1300;SDS011;59099;48.806;9.160;2022-09-01T05:17:09;23.67;;;21.27;;
1300;SDS011;59099;48.806;9.160;2022-09-01T05:19:37;22.77;;;20.37;;
1300;SDS011;59099;48.806;9.160;2022-09-01T05:22:12;22.90;;;20.50;;
1300;SDS011;59099;48.806;9.160;2022-09-01T05:24:43;22.23;;;19.93;;
1300;SDS011;59099;48.806;9.160;2022-09-01T05:27:10;23.60;;;21.40;;
1300;SDS011;59099;48.806;9.160;2022-09-01T05:29:37;22.47;;;20.03;;
1300;SDS011;59099;48.806;9.160;2022-09-01T05:32:06;24.97;;;22.37;;
1300;SDS011;59099;48.806;9.160;2022-09-01T05:34:37;23.70;;;21.17;;
1300;SDS011;59099;48.806;9.160;2022-09-01T05:37:06;22.07;;;19.77;;
1300;SDS011;59099;48.806;9.160;2022-09-01T05:39:35;23.50;;;21.00;;
1300;SDS011;59099;48.806;9.160;2022-09-01T05:42:03;22.47;;;20.17;;
1300;SDS011;59099;48.806;9.160;2022-09-01T05:44:33;21.90;;;19.60;;
1300;SDS011;59099;48.806;9.160;2022-09-01T05:47:01;24.47;;;21.67;;
1300;SDS011;59099;48.806;9.160;2022-09-01T05:49:28;21.40;;;18.93;;
1300;SDS011;59099;48.806;9.160;2022-09-01T05:51:57;20.73;;;18.80;;
1300;SDS011;59099;48.806;9.160;2022-09-01T05:54:25;21.37;;;19.27;;
1300;SDS011;59099;48.806;9.160;2022-09-01T05:56:53;22.43;;;20.33;;
1300;SDS011;59099;48.806;9.160;2022-09-01T05:59:27;22.00;;;18.63;;
1300;SDS011;59099;48.806;9.160;2022-09-01T06:02:02;20.87;;;18.67;;
1300;SDS011;59099;48.806;9.160;2022-09-01T06:04:32;20.23;;;18.10;;
1300;SDS011;59099;48.806;9.160;2022-09-01T06:07:01;23.27;;;20.83;;
1300;SDS011;59099;48.806;9.160;2022-09-01T06:09:32;20.97;;;18.97;;
1300;SDS011;59099;48.806;9.160;2022-09-01T06:12:06;20.70;;;18.70;;
1300;SDS011;59099;48.806;9.160;2022-09-01T06:14:33;22.30;;;20.00;;
1300;SDS011;59099;48.806;9.160;2022-09-01T06:16:59;22.70;;;20.50;;
1300;SDS011;59099;48.806;9.160;2022-09-01T06:19:26;23.97;;;21.60;;
1300;SDS011;59099;48.806;9.160;2022-09-01T06:21:52;21.23;;;19.20;;
1300;SDS011;59099;48.806;9.160;2022-09-01T06:24:19;24.57;;;22.17;;
1300;SDS011;59099;48.806;9.160;2022-09-01T06:26:45;22.33;;;20.00;;
1300;SDS011;59099;48.806;9.160;2022-09-01T06:29:11;24.30;;;21.73;;
1300;SDS011;59099;48.806;9.160;2022-09-01T06:31:44;22.17;;;19.90;;
1300;SDS011;59099;48.806;9.160;2022-09-01T06:34:11;24.57;;;22.13;;
1300;SDS011;59099;48.806;9.160;2022-09-01T06:36:42;22.83;;;20.67;;
1300;SDS011;59099;48.806;9.160;2022-09-01T06:39:11;22.63;;;20.30;;
1300;SDS011;59099;48.806;9.160;2022-09-01T06:41:46;25.97;;;23.40;;
1300;SDS011;59099;48.806;9.160;2022-09-01T06:44:18;20.80;;;18.80;;
1300;SDS011;59099;48.806;9.160;2022-09-01T06:46:52;22.53;;;20.27;;
1300;SDS011;59099;48.806;9.160;2022-09-01T06:49:19;22.20;;;20.10;;
1300;SDS011;59099;48.806;9.160;2022-09-01T06:51:49;24.67;;;20.80;;
1300;SDS011;59099;48.806;9.160;2022-09-01T06:54:16;22.00;;;20.00;;
1300;SDS011;59099;48.806;9.160;2022-09-01T06:56:44;22.73;;;20.73;;
1300;SDS011;59099;48.806;9.160;2022-09-01T06:59:11;22.57;;;20.43;;
1300;SDS011;59099;48.806;9.160;2022-09-01T07:01:41;26.53;;;21.70;;
1300;SDS011;59099;48.806;9.160;2022-09-01T07:04:07;24.77;;;22.37;;
1300;SDS011;59099;48.806;9.160;2022-09-01T07:06:42;23.60;;;21.27;;
1300;SDS011;59099;48.806;9.160;2022-09-01T07:09:14;22.80;;;20.80;;
1300;SDS011;59099;48.806;9.160;2022-09-01T07:11:42;22.57;;;20.27;;
1300;SDS011;59099;48.806;9.160;2022-09-01T07:14:08;22.93;;;20.73;;
1300;SDS011;59099;48.806;9.160;2022-09-01T07:16:36;22.33;;;20.13;;
1300;SDS011;59099;48.806;9.160;2022-09-01T07:19:05;21.27;;;19.30;;
1300;SDS011;59099;48.806;9.160;2022-09-01T07:21:46;22.90;;;20.63;;
1300;SDS011;59099;48.806;9.160;2022-09-01T07:24:13;20.70;;;18.80;;
1300;SDS011;59099;48.806;9.160;2022-09-01T07:27:02;22.53;;;19.80;;
1300;SDS011;59099;48.806;9.160;2022-09-01T07:29:28;21.57;;;19.37;;
1300;SDS011;59099;48.806;9.160;2022-09-01T07:31:54;18.77;;;17.07;;
1300;SDS011;59099;48.806;9.160;2022-09-01T07:34:21;19.23;;;17.43;;
1300;SDS011;59099;48.806;9.160;2022-09-01T07:36:48;20.47;;;18.57;;
1300;SDS011;59099;48.806;9.160;2022-09-01T07:39:14;16.13;;;14.50;;
1300;SDS011;59099;48.806;9.160;2022-09-01T07:41:49;18.90;;;16.90;;
1300;SDS011;59099;48.806;9.160;2022-09-01T07:44:45;16.07;;;14.67;;
1300;SDS011;59099;48.806;9.160;2022-09-01T07:47:37;17.70;;;16.10;;
1300;SDS011;59099;48.806;9.160;2022-09-01T07:50:05;17.97;;;16.27;;
1300;SDS011;59099;48.806;9.160;2022-09-01T07:52:36;19.10;;;17.27;;
1300;SDS011;59099;48.806;9.160;2022-09-01T07:55:11;16.90;;;15.30;;
1300;SDS011;59099;48.806;9.160;2022-09-01T07:57:40;15.37;;;14.07;;
1300;SDS011;59099;48.806;9.160;2022-09-01T08:00:08;15.90;;;14.40;;
1300;SDS011;59099;48.806;9.160;2022-09-01T08:02:44;17.13;;;15.47;;
1300;SDS011;59099;48.806;9.160;2022-09-01T08:05:14;16.03;;;14.40;;
1300;SDS011;59099;48.806;9.160;2022-09-01T08:07:43;14.07;;;12.70;;
1300;SDS011;59099;48.806;9.160;2022-09-01T08:10:13;14.53;;;13.17;;
1300;SDS011;59099;48.806;9.160;2022-09-01T08:12:40;12.63;;;11.53;;
1300;SDS011;59099;48.806;9.160;2022-09-01T08:15:07;12.33;;;11.20;;
1300;SDS011;59099;48.806;9.160;2022-09-01T08:17:36;12.47;;;11.27;;
1300;SDS011;59099;48.806;9.160;2022-09-01T08:20:07;13.03;;;11.80;;
1300;SDS011;59099;48.806;9.160;2022-09-01T08:22:53;11.93;;;10.83;;
1300;SDS011;59099;48.806;9.160;2022-09-01T08:25:29;11.20;;;10.40;;
1300;SDS011;59099;48.806;9.160;2022-09-01T08:27:57;12.43;;;11.23;;
1300;SDS011;59099;48.806;9.160;2022-09-01T08:30:23;11.57;;;10.57;;
1300;SDS011;59099;48.806;9.160;2022-09-01T08:32:49;12.30;;;11.10;;
1300;SDS011;59099;48.806;9.160;2022-09-01T08:35:15;10.77;;;9.93;;
1300;SDS011;59099;48.806;9.160;2022-09-01T08:37:42;10.70;;;9.90;;
1300;SDS011;59099;48.806;9.160;2022-09-01T08:40:11;10.57;;;9.77;;
1300;SDS011;59099;48.806;9.160;2022-09-01T08:45:49;8.13;;;7.53;;
1300;SDS011;59099;48.806;9.160;2022-09-01T08:48:31;9.70;;;8.80;;
1300;SDS011;59099;48.806;9.160;2022-09-01T08:56:47;8.17;;;7.57;;
1300;SDS011;59099;48.806;9.160;2022-09-01T08:59:41;7.50;;;7.00;;
1300;SDS011;59099;48.806;9.160;2022-09-01T09:02:33;6.27;;;5.87;;
1300;SDS011;59099;48.806;9.160;2022-09-01T09:05:25;7.30;;;6.80;;
1300;SDS011;59099;48.806;9.160;2022-09-01T09:14:17;7.00;;;6.40;;
1300;SDS011;59099;48.806;9.160;2022-09-01T09:17:02;7.80;;;7.20;;
1300;SDS011;59099;48.806;9.160;2022-09-01T09:21:59;7.90;;;7.17;;
1300;SDS011;59099;48.806;9.160;2022-09-01T09:24:31;7.90;;;7.30;;
1300;SDS011;59099;48.806;9.160;2022-09-01T09:30:01;8.73;;;7.73;;
1300;SDS011;59099;48.806;9.160;2022-09-01T09:32:52;8.10;;;7.40;;
1300;SDS011;59099;48.806;9.160;2022-09-01T09:35:38;8.33;;;7.63;;
1300;SDS011;59099;48.806;9.160;2022-09-01T09:43:31;8.00;;;7.40;;
1300;SDS011;59099;48.806;9.160;2022-09-01T09:51:46;7.53;;;6.90;;
1300;SDS011;59099;48.806;9.160;2022-09-01T09:54:16;7.47;;;6.97;;
1300;SDS011;59099;48.806;9.160;2022-09-01T09:57:09;7.10;;;6.53;;
1300;SDS011;59099;48.806;9.160;2022-09-01T09:59:42;8.30;;;7.60;;
1300;SDS011;59099;48.806;9.160;2022-09-01T10:05:20;7.43;;;6.73;;
1300;SDS011;59099;48.806;9.160;2022-09-01T10:08:09;7.27;;;6.63;;
1300;SDS011;59099;48.806;9.160;2022-09-01T10:11:02;7.30;;;6.70;;
1300;SDS011;59099;48.806;9.160;2022-09-01T10:13:31;6.33;;;5.83;;
1300;SDS011;59099;48.806;9.160;2022-09-01T10:16:02;6.80;;;6.30;;
1300;SDS011;59099;48.806;9.160;2022-09-01T10:18:32;6.10;;;5.67;;
1300;SDS011;59099;48.806;9.160;2022-09-01T10:21:11;5.73;;;5.20;;
1300;SDS011;59099;48.806;9.160;2022-09-01T10:23:46;6.00;;;5.57;;
1300;SDS011;59099;48.806;9.160;2022-09-01T10:26:21;6.40;;;5.90;;
1300;SDS011;59099;48.806;9.160;2022-09-01T10:28:55;6.93;;;6.27;;
1300;SDS011;59099;48.806;9.160;2022-09-01T10:31:26;5.73;;;5.27;;
1300;SDS011;59099;48.806;9.160;2022-09-01T10:33:53;5.37;;;5.00;;
1300;SDS011;59099;48.806;9.160;2022-09-01T10:36:19;6.20;;;5.80;;
1300;SDS011;59099;48.806;9.160;2022-09-01T10:38:46;5.73;;;5.33;;
1300;SDS011;59099;48.806;9.160;2022-09-01T10:44:17;5.67;;;5.23;;
1300;SDS011;59099;48.806;9.160;2022-09-01T10:46:46;5.60;;;5.30;;
1300;SDS011;59099;48.806;9.160;2022-09-01T10:49:58;5.40;;;4.90;;
1300;SDS011;59099;48.806;9.160;2022-09-01T10:52:09;5.27;;;4.80;;
1300;SDS011;59099;48.806;9.160;2022-09-01T10:57:48;4.30;;;4.00;;
1300;SDS011;59099;48.806;9.160;2022-09-01T11:00:54;4.87;;;4.57;;
1300;SDS011;59099;48.806;9.160;2022-09-01T11:14:29;3.80;;;3.60;;
1300;SDS011;59099;48.806;9.160;2022-09-01T11:25:09;4.90;;;4.50;;
1300;SDS011;59099;48.806;9.160;2022-09-01T11:30:17;4.30;;;4.00;;
1300;SDS011;59099;48.806;9.160;2022-09-01T11:32:52;4.73;;;4.23;;
1300;SDS011;59099;48.806;9.160;2022-09-01T11:35:25;4.10;;;3.80;;
1300;SDS011;59099;48.806;9.160;2022-09-01T11:37:56;4.40;;;4.00;;
1300;SDS011;59099;48.806;9.160;2022-09-01T11:40:32;4.37;;;4.07;;
1300;SDS011;59099;48.806;9.160;2022-09-01T11:43:02;4.50;;;4.20;;
1300;SDS011;59099;48.806;9.160;2022-09-01T11:45:36;3.90;;;3.70;;
1300;SDS011;59099;48.806;9.160;2022-09-01T11:48:27;4.07;;;3.77;;
1300;SDS011;59099;48.806;9.160;2022-09-01T11:50:58;3.57;;;3.37;;
1300;SDS011;59099;48.806;9.160;2022-09-01T11:53:27;3.60;;;3.40;;
1300;SDS011;59099;48.806;9.160;2022-09-01T11:55:54;3.70;;;3.50;;
1300;SDS011;59099;48.806;9.160;2022-09-01T11:58:35;3.97;;;3.70;;
1300;SDS011;59099;48.806;9.160;2022-09-01T12:03:39;4.00;;;3.80;;
1300;SDS011;59099;48.806;9.160;2022-09-01T12:06:06;4.40;;;4.10;;
1300;SDS011;59099;48.806;9.160;2022-09-01T12:08:35;3.90;;;3.60;;
1300;SDS011;59099;48.806;9.160;2022-09-01T12:13:37;4.20;;;3.90;;
1300;SDS011;59099;48.806;9.160;2022-09-01T12:16:06;3.53;;;3.33;;
1300;SDS011;59099;48.806;9.160;2022-09-01T12:18:36;3.60;;;3.40;;
1300;SDS011;59099;48.806;9.160;2022-09-01T12:21:23;4.20;;;3.90;;
1300;SDS011;59099;48.806;9.160;2022-09-01T12:23:53;4.03;;;3.37;;
1300;SDS011;59099;48.806;9.160;2022-09-01T12:26:36;4.73;;;4.43;;
1300;SDS011;59099;48.806;9.160;2022-09-01T12:29:04;4.00;;;3.80;;
1300;SDS011;59099;48.806;9.160;2022-09-01T12:31:31;4.00;;;3.70;;
1300;SDS011;59099;48.806;9.160;2022-09-01T12:33:57;4.33;;;4.03;;
1300;SDS011;59099;48.806;9.160;2022-09-01T12:36:34;4.17;;;3.70;;
1300;SDS011;59099;48.806;9.160;2022-09-01T12:39:18;3.90;;;3.70;;
1300;SDS011;59099;48.806;9.160;2022-09-01T12:41:49;3.90;;;3.60;;
1300;SDS011;59099;48.806;9.160;2022-09-01T12:44:47;3.57;;;3.37;;
1300;SDS011;59099;48.806;9.160;2022-09-01T12:52:50;3.80;;;3.50;;
1300;SDS011;59099;48.806;9.160;2022-09-01T12:57:47;3.17;;;3.07;;
1300;SDS011;59099;48.806;9.160;2022-09-01T13:00:23;3.40;;;3.20;;
1300;SDS011;59099;48.806;9.160;2022-09-01T13:05:29;2.80;;;2.70;;
1300;SDS011;59099;48.806;9.160;2022-09-01T13:08:04;3.20;;;2.70;;
1300;SDS011;59099;48.806;9.160;2022-09-01T13:10:34;3.10;;;2.90;;
1300;SDS011;59099;48.806;9.160;2022-09-01T13:13:03;3.60;;;3.30;;
1300;SDS011;59099;48.806;9.160;2022-09-01T13:15:30;3.30;;;3.10;;
1300;SDS011;59099;48.806;9.160;2022-09-01T13:17:56;5.57;;;3.27;;
1300;SDS011;59099;48.806;9.160;2022-09-01T13:20:22;3.83;;;3.53;;
1300;SDS011;59099;48.806;9.160;2022-09-01T13:22:48;3.40;;;3.10;;
1300;SDS011;59099;48.806;9.160;2022-09-01T13:25:15;2.60;;;2.50;;
1300;SDS011;59099;48.806;9.160;2022-09-01T13:27:43;3.13;;;2.93;;
1300;SDS011;59099;48.806;9.160;2022-09-01T13:30:15;3.43;;;3.13;;
1300;SDS011;59099;48.806;9.160;2022-09-01T13:32:44;3.63;;;3.43;;
1300;SDS011;59099;48.806;9.160;2022-09-01T13:35:11;4.13;;;3.83;;
1300;SDS011;59099;48.806;9.160;2022-09-01T13:37:44;3.83;;;3.63;;
1300;SDS011;59099;48.806;9.160;2022-09-01T13:40:11;4.07;;;3.87;;
1300;SDS011;59099;48.806;9.160;2022-09-01T13:42:41;3.73;;;3.53;;
1300;SDS011;59099;48.806;9.160;2022-09-01T13:45:08;3.93;;;3.73;;
1300;SDS011;59099;48.806;9.160;2022-09-01T13:47:40;3.57;;;3.37;;
1300;SDS011;59099;48.806;9.160;2022-09-01T13:50:07;4.10;;;3.80;;
1300;SDS011;59099;48.806;9.160;2022-09-01T13:52:35;3.30;;;3.00;;
1300;SDS011;59099;48.806;9.160;2022-09-01T13:55:03;2.70;;;2.60;;
1300;SDS011;59099;48.806;9.160;2022-09-01T13:57:30;3.57;;;3.37;;
1300;SDS011;59099;48.806;9.160;2022-09-01T13:59:57;3.57;;;3.37;;
1300;SDS011;59099;48.806;9.160;2022-09-01T14:02:23;2.67;;;2.47;;
1300;SDS011;59099;48.806;9.160;2022-09-01T14:04:50;3.17;;;2.97;;
1300;SDS011;59099;48.806;9.160;2022-09-01T14:07:22;3.23;;;3.13;;
1300;SDS011;59099;48.806;9.160;2022-09-01T14:09:48;3.20;;;3.00;;
1300;SDS011;59099;48.806;9.160;2022-09-01T14:12:13;3.00;;;2.80;;
1300;SDS011;59099;48.806;9.160;2022-09-01T14:14:40;3.30;;;3.10;;
1300;SDS011;59099;48.806;9.160;2022-09-01T14:17:09;3.27;;;3.17;;
1300;SDS011;59099;48.806;9.160;2022-09-01T14:19:35;3.60;;;3.40;;
1300;SDS011;59099;48.806;9.160;2022-09-01T14:22:01;3.33;;;3.00;;
1300;SDS011;59099;48.806;9.160;2022-09-01T14:24:33;3.17;;;2.90;;
1300;SDS011;59099;48.806;9.160;2022-09-01T14:27:00;3.07;;;2.97;;
1300;SDS011;59099;48.806;9.160;2022-09-01T14:29:27;3.23;;;3.03;;
1300;SDS011;59099;48.806;9.160;2022-09-01T14:31:56;3.40;;;3.20;;
1300;SDS011;59099;48.806;9.160;2022-09-01T14:34:22;4.10;;;3.50;;
1300;SDS011;59099;48.806;9.160;2022-09-01T14:36:50;3.93;;;3.40;;
1300;SDS011;59099;48.806;9.160;2022-09-01T14:39:22;3.50;;;3.30;;
1300;SDS011;59099;48.806;9.160;2022-09-01T14:41:50;3.07;;;2.87;;
1300;SDS011;59099;48.806;9.160;2022-09-01T14:44:19;3.00;;;2.80;;
1300;SDS011;59099;48.806;9.160;2022-09-01T14:46:45;4.13;;;3.10;;
1300;SDS011;59099;48.806;9.160;2022-09-01T14:49:11;3.23;;;3.03;;
1300;SDS011;59099;48.806;9.160;2022-09-01T14:51:37;3.10;;;2.90;;
1300;SDS011;59099;48.806;9.160;2022-09-01T14:54:03;2.60;;;2.40;;
1300;SDS011;59099;48.806;9.160;2022-09-01T14:56:29;2.50;;;2.40;;
1300;SDS011;59099;48.806;9.160;2022-09-01T14:58:59;3.00;;;2.80;;
1300;SDS011;59099;48.806;9.160;2022-09-01T15:01:26;2.70;;;2.60;;
1300;SDS011;59099;48.806;9.160;2022-09-01T15:03:52;2.90;;;2.70;;
1300;SDS011;59099;48.806;9.160;2022-09-01T15:06:19;2.63;;;2.53;;
1300;SDS011;59099;48.806;9.160;2022-09-01T15:08:52;2.70;;;2.50;;
1300;SDS011;59099;48.806;9.160;2022-09-01T15:11:18;2.97;;;2.77;;
1300;SDS011;59099;48.806;9.160;2022-09-01T15:13:45;2.47;;;2.37;;
1300;SDS011;59099;48.806;9.160;2022-09-01T15:16:12;2.87;;;2.67;;
1300;SDS011;59099;48.806;9.160;2022-09-01T15:18:44;2.40;;;2.30;;
1300;SDS011;59099;48.806;9.160;2022-09-01T15:21:18;2.20;;;2.10;;
1300;SDS011;59099;48.806;9.160;2022-09-01T15:23:47;2.70;;;2.50;;
1300;SDS011;59099;48.806;9.160;2022-09-01T15:26:17;3.00;;;2.80;;
1300;SDS011;59099;48.806;9.160;2022-09-01T15:28:45;2.63;;;2.43;;
1300;SDS011;59099;48.806;9.160;2022-09-01T15:31:12;2.60;;;2.50;;
1300;SDS011;59099;48.806;9.160;2022-09-01T15:33:40;3.20;;;2.83;;
1300;SDS011;59099;48.806;9.160;2022-09-01T15:36:16;3.00;;;2.80;;
1300;SDS011;59099;48.806;9.160;2022-09-01T15:38:46;3.57;;;3.27;;
1300;SDS011;59099;48.806;9.160;2022-09-01T15:41:31;3.23;;;3.03;;
1300;SDS011;59099;48.806;9.160;2022-09-01T15:44:04;3.17;;;2.97;;
1300;SDS011;59099;48.806;9.160;2022-09-01T15:46:32;3.20;;;3.00;;
1300;SDS011;59099;48.806;9.160;2022-09-01T15:49:07;3.00;;;2.80;;
1300;SDS011;59099;48.806;9.160;2022-09-01T15:51:42;3.37;;;3.10;;
1300;SDS011;59099;48.806;9.160;2022-09-01T15:54:10;2.87;;;2.70;;
1300;SDS011;59099;48.806;9.160;2022-09-01T15:56:37;3.30;;;3.10;;
1300;SDS011;59099;48.806;9.160;2022-09-01T15:59:04;2.73;;;2.63;;
1300;SDS011;59099;48.806;9.160;2022-09-01T16:01:35;2.83;;;2.63;;
1300;SDS011;59099;48.806;9.160;2022-09-01T16:04:05;3.40;;;2.70;;
1300;SDS011;59099;48.806;9.160;2022-09-01T16:06:39;3.27;;;3.07;;
1300;SDS011;59099;48.806;9.160;2022-09-01T16:09:06;3.20;;;2.83;;
1300;SDS011;59099;48.806;9.160;2022-09-01T16:11:33;3.30;;;3.10;;
1300;SDS011;59099;48.806;9.160;2022-09-01T16:14:01;2.80;;;2.70;;
1300;SDS011;59099;48.806;9.160;2022-09-01T16:19:22;3.20;;;2.90;;
1300;SDS011;59099;48.806;9.160;2022-09-01T16:22:13;3.07;;;2.87;;
1300;SDS011;59099;48.806;9.160;2022-09-01T16:24:47;3.13;;;2.93;;
1300;SDS011;59099;48.806;9.160;2022-09-01T16:27:16;3.07;;;2.87;;
1300;SDS011;59099;48.806;9.160;2022-09-01T16:29:49;3.10;;;2.90;;
1300;SDS011;59099;48.806;9.160;2022-09-01T16:32:17;3.10;;;2.90;;
1300;SDS011;59099;48.806;9.160;2022-09-01T16:34:45;3.10;;;2.80;;
1300;SDS011;59099;48.806;9.160;2022-09-01T16:55:57;5.47;;;3.43;;
1300;SDS011;59099;48.806;9.160;2022-09-01T16:58:39;3.17;;;3.03;;